createdAt,value
2017-11-03T00:00:16.901Z,19.4
2017-11-03T00:02:17.782Z,25.7
2017-11-03T00:04:17.614Z,23.3
2017-11-03T00:06:17.473Z,24.4
2017-11-03T00:08:17.348Z,17.6
2017-11-03T00:10:18.189Z,23.9
2017-11-03T00:12:17.076Z,22.6
2017-11-03T00:14:16.942Z,16.7
2017-11-03T00:16:17.780Z,23.3
2017-11-03T00:18:18.647Z,22.7
2017-11-03T00:20:17.492Z,20.5
2017-11-03T00:22:17.352Z,24.4
2017-11-03T00:24:17.246Z,16.8
2017-11-03T00:26:18.091Z,23.3
2017-11-03T00:28:16.950Z,22.2
2017-11-03T00:30:17.834Z,22.9
2017-11-03T00:32:17.687Z,22.1
2017-11-03T00:34:17.529Z,18
2017-11-03T00:36:18.429Z,27.1
2017-11-03T00:38:17.267Z,20.4
2017-11-03T00:40:18.140Z,20
2017-11-03T00:42:17.014Z,17.3
2017-11-03T00:44:16.863Z,21.3
2017-11-03T00:46:21.713Z,28.9
2017-11-03T00:48:17.591Z,24.5
2017-11-03T00:50:21.406Z,23.4
2017-11-03T00:52:17.284Z,20.5
2017-11-03T00:54:17.150Z,21.7
2017-11-03T00:56:17.028Z,19.5
2017-11-03T00:58:16.876Z,22.4
2017-11-03T01:00:17.758Z,20.8
2017-11-03T01:02:17.603Z,23.8
2017-11-03T01:04:17.459Z,21
2017-11-03T01:06:17.323Z,25.7
2017-11-03T01:08:17.189Z,25.2
2017-11-03T01:10:18.039Z,24.5
2017-11-03T01:12:16.925Z,21.4
2017-11-03T01:14:16.764Z,24.9
2017-11-03T01:16:17.640Z,26.1
2017-11-03T01:18:18.472Z,19.8
2017-11-03T01:20:18.364Z,21.3
2017-11-03T01:22:17.201Z,24.4
2017-11-03T01:24:17.091Z,24
2017-11-03T01:26:16.942Z,22.4
2017-11-03T01:28:16.798Z,18.9
2017-11-03T01:30:18.672Z,23.5
2017-11-03T01:32:17.537Z,26.4
2017-11-03T01:34:17.420Z,22.7
2017-11-03T01:36:17.300Z,21.2
2017-11-03T01:38:17.192Z,23.8
2017-11-03T01:40:18.090Z,20.9
2017-11-03T01:42:16.968Z,19.6
2017-11-03T01:44:16.846Z,22.5
2017-11-03T01:46:17.740Z,25.6
2017-11-03T01:48:17.653Z,21.2
2017-11-03T01:50:17.517Z,21.9
2017-11-03T01:52:17.393Z,22.6
2017-11-03T01:54:17.287Z,26.5
2017-11-03T01:56:18.157Z,23.5
2017-11-03T01:58:17.048Z,21.3
2017-11-03T02:00:16.926Z,23
2017-11-03T02:02:17.812Z,20
2017-11-03T02:04:17.700Z,23.3
2017-11-03T02:06:17.573Z,19.6
2017-11-03T02:08:17.464Z,24.9
2017-11-03T02:10:17.368Z,15.4
2017-11-03T02:12:17.237Z,14.1
2017-11-03T02:14:17.126Z,19.7
2017-11-03T02:16:18.047Z,17.2
2017-11-03T02:18:17.916Z,20.7
2017-11-03T02:20:17.843Z,14.9
2017-11-03T02:22:17.696Z,13.6
2017-11-03T02:24:17.567Z,24.2
2017-11-03T02:26:17.461Z,16.2
2017-11-03T02:28:17.336Z,17.7
2017-11-03T02:30:17.214Z,14.2
2017-11-03T02:32:17.091Z,18
2017-11-03T02:34:16.974Z,12.9
2017-11-03T02:36:16.839Z,17.8
2017-11-03T02:38:17.729Z,14.3
2017-11-03T02:40:17.648Z,13.1
2017-11-03T02:42:17.522Z,15.3
2017-11-03T02:44:17.387Z,14.4
2017-11-03T02:46:18.276Z,13.6
2017-11-03T02:48:17.154Z,10.1
2017-11-03T02:50:17.051Z,12.8
2017-11-03T02:52:16.956Z,13.3
2017-11-03T02:54:16.789Z,13.3
2017-11-03T02:56:17.685Z,16.7
2017-11-03T02:58:17.554Z,17.5
2017-11-03T03:00:17.436Z,15
2017-11-03T03:02:17.349Z,12.7
2017-11-03T03:04:17.224Z,12.9
2017-11-03T03:06:18.126Z,18.1
2017-11-03T03:08:17.022Z,18.9
2017-11-03T03:10:17.926Z,16.5
2017-11-03T03:12:17.841Z,19.6
2017-11-03T03:14:17.718Z,17.2
2017-11-03T03:16:17.595Z,15.7
2017-11-03T03:18:17.515Z,13.6
2017-11-03T03:20:17.407Z,19.6
2017-11-03T03:22:17.290Z,14.3
2017-11-03T03:24:17.499Z,19.1
2017-11-03T03:26:18.096Z,20.6
2017-11-03T03:28:16.999Z,15
2017-11-03T03:30:16.890Z,19.9
2017-11-03T03:32:17.751Z,16.1
2017-11-03T03:34:17.653Z,22
2017-11-03T03:36:17.548Z,14.9
2017-11-03T03:38:17.404Z,14.8
2017-11-03T03:40:18.302Z,16.6
2017-11-03T03:42:17.211Z,21.8
2017-11-03T03:44:17.088Z,17.1
2017-11-03T03:46:16.982Z,22.8
2017-11-03T03:48:16.868Z,22.5
2017-11-03T03:50:17.754Z,16.9
2017-11-03T03:52:17.640Z,27.6
2017-11-03T03:54:17.544Z,23.2
2017-11-03T03:56:17.405Z,20.7
2017-11-03T03:58:17.253Z,22.2
2017-11-03T04:00:17.150Z,17.6
2017-11-03T04:02:17.088Z,21.3
2017-11-03T04:04:17.898Z,27.2
2017-11-03T04:06:17.745Z,23.8
2017-11-03T04:08:17.646Z,28.8
2017-11-03T04:10:17.511Z,22.6
2017-11-03T04:12:17.393Z,19.5
2017-11-03T04:14:17.266Z,20.6
2017-11-03T04:16:18.156Z,20.2
2017-11-03T04:18:18.030Z,24.5
2017-11-03T04:20:17.914Z,23.6
2017-11-03T04:22:17.787Z,20.3
2017-11-03T04:24:17.652Z,24.1
2017-11-03T04:26:17.540Z,21.2
2017-11-03T04:28:17.437Z,17.9
2017-11-03T04:30:17.275Z,26.3
2017-11-03T04:32:17.159Z,23.9
2017-11-03T04:34:17.076Z,23.4
2017-11-03T04:36:17.940Z,24.3
2017-11-03T04:38:16.809Z,23
2017-11-03T04:40:17.670Z,27.4
2017-11-03T04:42:17.542Z,22.8
2017-11-03T04:44:17.449Z,28.7
2017-11-03T04:46:17.272Z,26.4
2017-11-03T04:48:17.141Z,26.5
2017-11-03T04:50:17.024Z,27.7
2017-11-03T04:52:16.929Z,27.6
2017-11-03T04:54:20.712Z,21.1
2017-11-03T04:56:17.600Z,25.7
2017-11-03T04:58:17.459Z,34.3
2017-11-03T05:00:17.298Z,25.8
2017-11-03T05:02:17.169Z,26.1
2017-11-03T05:04:17.053Z,24
2017-11-03T05:06:17.853Z,33.7
2017-11-03T05:08:17.706Z,25.9
2017-11-03T05:10:17.544Z,31.3
2017-11-03T05:12:17.391Z,27.6
2017-11-03T05:14:17.257Z,30.7
2017-11-03T05:16:17.091Z,34.2
2017-11-03T05:18:17.940Z,34.4
2017-11-03T05:20:17.783Z,31
2017-11-03T05:22:17.677Z,29.4
2017-11-03T05:24:21.516Z,34.9
2017-11-03T05:26:18.354Z,27.4
2017-11-03T05:28:17.218Z,26.7
2017-11-03T05:30:17.060Z,29.8
2017-11-03T05:32:16.897Z,27.1
2017-11-03T05:34:17.749Z,26.8
2017-11-03T05:36:17.618Z,27.9
2017-11-03T05:38:17.446Z,30.9
2017-11-03T05:40:17.273Z,25.9
2017-11-03T05:42:17.129Z,33.5
2017-11-03T05:44:17.035Z,27.1
2017-11-03T05:46:17.896Z,22.7
2017-11-03T05:50:17.613Z,27
2017-11-03T05:52:17.485Z,29
2017-11-03T05:54:17.362Z,22.8
2017-11-03T05:56:17.248Z,25.6
2017-11-03T05:58:17.110Z,34.5
2017-11-03T06:00:16.967Z,22
2017-11-03T06:02:16.823Z,26.9
2017-11-03T06:04:17.727Z,26.5
2017-11-03T06:06:17.563Z,27.2
2017-11-03T06:08:21.385Z,30.3
2017-11-03T06:10:18.253Z,29.3
2017-11-03T06:12:17.117Z,27.7
2017-11-03T06:14:16.996Z,25.4
2017-11-03T06:16:17.864Z,29.1
2017-11-03T06:18:17.720Z,27.8
2017-11-03T06:20:17.603Z,26
2017-11-03T06:22:17.471Z,29.7
2017-11-03T06:24:17.378Z,31.8
2017-11-03T06:26:18.209Z,30.3
2017-11-03T06:28:17.091Z,34.3
2017-11-03T06:30:16.982Z,35.5
2017-11-03T06:32:16.848Z,29.3
2017-11-03T06:34:17.700Z,30.9
2017-11-03T06:36:17.555Z,37.3
2017-11-03T06:38:17.425Z,32.2
2017-11-03T06:40:17.285Z,32.5
2017-11-03T06:42:17.205Z,30.5
2017-11-03T06:44:17.037Z,32.7
2017-11-03T06:46:17.896Z,27.7
2017-11-03T06:48:17.777Z,30.4
2017-11-03T06:50:17.619Z,30.1
2017-11-03T06:52:17.479Z,40.3
2017-11-03T06:54:17.348Z,33.3
2017-11-03T06:56:18.189Z,30.2
2017-11-03T06:58:17.039Z,32.8
2017-11-03T07:00:16.917Z,35.6
2017-11-03T07:02:17.746Z,30.7
2017-11-03T07:04:17.620Z,37.8
2017-11-03T07:06:17.495Z,31.6
2017-11-03T07:08:21.302Z,29.1
2017-11-03T07:10:18.186Z,37.6
2017-11-03T07:12:17.065Z,32
2017-11-03T07:14:20.871Z,37
2017-11-03T07:16:17.726Z,31.4
2017-11-03T07:18:18.613Z,31.4
2017-11-03T07:20:17.458Z,30.9
2017-11-03T07:22:17.309Z,27.9
2017-11-03T07:24:17.189Z,33.4
2017-11-03T07:26:18.050Z,27.5
2017-11-03T07:28:16.908Z,30.1
2017-11-03T07:30:17.740Z,24.9
2017-11-03T07:32:17.631Z,21.2
2017-11-03T07:34:17.488Z,22.9
2017-11-03T07:36:17.360Z,20.4
2017-11-03T07:38:17.218Z,20.6
2017-11-03T07:40:18.066Z,21.2
2017-11-03T07:42:16.950Z,20.5
2017-11-03T07:44:16.761Z,23.1
2017-11-03T07:46:17.648Z,24.5
2017-11-03T07:48:17.534Z,27.3
2017-11-03T07:50:18.358Z,26.4
2017-11-03T07:52:17.259Z,23.9
2017-11-03T07:54:17.116Z,25.1
2017-11-03T07:56:16.977Z,22.1
2017-11-03T07:58:16.888Z,21.3
2017-11-03T08:00:17.759Z,21
2017-11-03T08:02:17.627Z,21.8
2017-11-03T08:04:17.499Z,19.8
2017-11-03T08:06:17.330Z,21
2017-11-03T08:08:17.235Z,16.4
2017-11-03T08:10:18.070Z,19.6
2017-11-03T08:12:16.933Z,21
2017-11-03T08:14:16.826Z,17.5
2017-11-03T08:16:17.701Z,20.1
2017-11-03T08:18:18.575Z,16.7
2017-11-03T08:20:17.460Z,19.9
2017-11-03T08:22:17.313Z,21
2017-11-03T08:24:17.256Z,17.1
2017-11-03T08:26:17.102Z,20.2
2017-11-03T08:28:16.947Z,21.2
2017-11-03T08:30:16.828Z,22.8
2017-11-03T08:32:17.649Z,23.5
2017-11-03T08:34:17.559Z,30.5
2017-11-03T08:36:17.418Z,24.7
2017-11-03T08:38:17.310Z,30.7
2017-11-03T08:40:18.164Z,28.6
2017-11-03T08:42:17.063Z,21.5
2017-11-03T08:44:16.940Z,23.3
2017-11-03T08:46:17.821Z,24.1
2017-11-03T08:48:17.706Z,29.6
2017-11-03T08:50:17.587Z,25
2017-11-03T08:52:17.475Z,24
2017-11-03T08:54:17.359Z,28.4
2017-11-03T08:56:18.278Z,24.5
2017-11-03T08:58:17.152Z,22.8
2017-11-03T09:00:17.016Z,25
2017-11-03T09:02:16.897Z,20.9
2017-11-03T09:04:17.764Z,18.5
2017-11-03T09:06:17.671Z,19.1
2017-11-03T09:08:17.524Z,17.7
2017-11-03T09:10:17.424Z,18.1
2017-11-03T09:12:17.316Z,18.3
2017-11-03T09:14:17.210Z,20.4
2017-11-03T09:16:17.080Z,16.8
2017-11-03T09:18:17.959Z,20.5
2017-11-03T09:20:16.842Z,13.3
2017-11-03T09:22:17.705Z,15.9
2017-11-03T09:24:17.587Z,18.1
2017-11-03T09:26:17.476Z,12.3
2017-11-03T09:28:17.355Z,15.4
2017-11-03T09:30:21.187Z,17.5
2017-11-03T09:32:17.042Z,17.9
2017-11-03T09:34:16.940Z,16.6
2017-11-03T09:36:17.793Z,19.1
2017-11-03T09:38:17.690Z,12.3
2017-11-03T09:40:17.574Z,11.4
2017-11-03T09:42:17.463Z,13
2017-11-03T09:44:17.354Z,8.3
2017-11-03T09:46:18.227Z,10
2017-11-03T09:48:17.118Z,9.7
2017-11-03T09:52:17.837Z,10.3
2017-11-03T09:54:17.716Z,14
2017-11-03T09:56:17.613Z,10.2
2017-11-03T09:58:17.477Z,12.9
2017-11-03T10:00:17.351Z,9.5
2017-11-03T10:02:17.240Z,12
2017-11-03T10:04:17.126Z,13.3
2017-11-03T10:06:18.026Z,11.9
2017-11-03T10:08:16.902Z,8.8
2017-11-03T10:10:17.821Z,22.8
2017-11-03T10:12:17.696Z,15.1
2017-11-03T10:14:17.574Z,13.4
2017-11-03T10:16:17.495Z,12.3
2017-11-03T10:18:17.406Z,14.9
2017-11-03T10:20:17.326Z,27.9
2017-11-03T10:22:17.203Z,14.2
2017-11-03T10:24:17.099Z,11.7
2017-11-03T10:26:18.031Z,20.7
2017-11-03T10:28:16.928Z,20.2
2017-11-03T10:30:16.856Z,10.2
2017-11-03T10:32:17.736Z,16.3
2017-11-03T10:34:17.628Z,8.7
2017-11-03T10:36:17.550Z,16.7
2017-11-03T10:38:17.428Z,11
2017-11-03T10:40:17.371Z,9.4
2017-11-03T10:42:17.256Z,12.7
2017-11-03T10:44:17.170Z,9.1
2017-11-03T10:46:17.103Z,11.1
2017-11-03T10:48:16.972Z,9.7
2017-11-03T10:50:16.911Z,9.6
2017-11-03T10:52:17.834Z,9
2017-11-03T10:54:17.778Z,7.5
2017-11-03T10:56:17.705Z,20.7
2017-11-03T10:58:17.608Z,11
2017-11-03T11:00:17.526Z,10.2
2017-11-03T11:02:17.437Z,5.8
2017-11-03T11:04:17.341Z,14.5
2017-11-03T11:06:17.299Z,8.2
2017-11-03T11:08:17.198Z,10.2
2017-11-03T11:10:18.104Z,11.1
2017-11-03T11:12:17.043Z,8.1
2017-11-03T11:14:16.923Z,12.4
2017-11-03T11:16:17.867Z,8.9
2017-11-03T11:18:20.782Z,7.5
2017-11-03T11:20:17.681Z,9.2
2017-11-03T11:22:17.610Z,11.6
2017-11-03T11:24:17.503Z,8
2017-11-03T11:26:18.425Z,13.3
2017-11-03T11:28:17.367Z,7.5
2017-11-03T11:30:17.294Z,10.1
2017-11-03T11:32:17.220Z,8
2017-11-03T11:34:17.144Z,10.1
2017-11-03T11:36:17.042Z,8
2017-11-03T11:38:16.961Z,11.8
2017-11-03T11:40:17.899Z,11.2
2017-11-03T11:42:17.812Z,10.1
2017-11-03T11:44:17.721Z,7.4
2017-11-03T11:46:17.691Z,8.8
2017-11-03T11:48:17.587Z,10
2017-11-03T11:50:17.523Z,10.9
2017-11-03T11:52:17.455Z,7.5
2017-11-03T11:56:17.283Z,9
2017-11-03T11:58:17.208Z,7.9
2017-11-03T12:00:17.158Z,9.4
2017-11-03T12:02:17.077Z,8.4
2017-11-03T12:04:17.028Z,6
2017-11-03T12:06:17.929Z,5.3
2017-11-03T12:08:16.874Z,8.3
2017-11-03T12:10:17.821Z,10.2
2017-11-03T12:12:17.749Z,5.4
2017-11-03T12:16:17.625Z,8.2
2017-11-03T12:18:17.582Z,5.8
2017-11-03T12:20:17.504Z,8.9
2017-11-03T12:22:17.440Z,8.6
2017-11-03T12:24:17.372Z,4.3
2017-11-03T12:26:18.318Z,6.3
2017-11-03T12:28:17.273Z,5.8
2017-11-03T12:30:17.196Z,7.3
2017-11-03T12:32:17.156Z,7.7
2017-11-03T12:34:17.061Z,8.3
2017-11-03T12:36:18.001Z,7.1
2017-11-03T12:38:16.945Z,4.5
2017-11-03T12:40:17.900Z,6.8
2017-11-03T12:42:17.845Z,4.5
2017-11-03T12:44:17.746Z,5
2017-11-03T12:46:17.717Z,9.6
2017-11-03T12:48:17.648Z,7.1
2017-11-03T12:50:17.644Z,10.7
2017-11-03T12:52:17.542Z,8.2
2017-11-03T12:54:17.514Z,9
2017-11-03T12:56:17.441Z,10.1
2017-11-03T12:58:17.436Z,9.7
2017-11-03T13:00:17.381Z,9.6
2017-11-03T13:02:17.321Z,9.2
2017-11-03T13:04:17.241Z,10.1
2017-11-03T13:06:17.196Z,10.6
2017-11-03T13:08:17.161Z,9.1
2017-11-03T13:10:18.089Z,15.5
2017-11-03T13:12:17.045Z,8.8
2017-11-03T13:14:16.993Z,19.2
2017-11-03T13:16:17.911Z,9.1
2017-11-03T13:18:16.868Z,11.4
2017-11-03T13:20:17.789Z,9.8
2017-11-03T13:22:17.748Z,7.6
2017-11-03T13:24:17.726Z,9.9
2017-11-03T13:26:17.694Z,8.5
2017-11-03T13:28:17.663Z,8
2017-11-03T13:30:17.632Z,5
2017-11-03T13:32:17.629Z,10.1
2017-11-03T13:34:17.581Z,6.1
2017-11-03T13:36:17.568Z,6.5
2017-11-03T13:38:17.538Z,6.5
2017-11-03T13:40:17.481Z,9.8
2017-11-03T13:42:17.475Z,6.3
2017-11-03T13:44:17.471Z,5.9
2017-11-03T13:46:18.404Z,6.7
2017-11-03T13:48:17.362Z,6.6
2017-11-03T13:50:17.369Z,9.2
2017-11-03T13:52:17.326Z,5
2017-11-03T13:54:17.273Z,6.5
2017-11-03T13:56:18.258Z,5.3
2017-11-03T13:58:17.228Z,5.5
2017-11-03T14:00:17.185Z,3.3
2017-11-03T14:02:17.182Z,6.1
2017-11-03T14:04:17.197Z,10.6
2017-11-03T14:06:17.105Z,5.4
2017-11-03T14:08:17.061Z,6.4
2017-11-03T14:10:18.070Z,5.2
2017-11-03T14:12:17.102Z,7.2
2017-11-03T14:14:17.024Z,3.1
2017-11-03T14:16:17.947Z,5.6
2017-11-03T14:18:16.963Z,5
2017-11-03T14:20:16.926Z,2.8
2017-11-03T14:22:17.907Z,3.3
2017-11-03T14:24:17.893Z,4.1
2017-11-03T14:26:17.876Z,6
2017-11-03T14:28:17.854Z,2.9
2017-11-03T14:30:17.824Z,4
2017-11-03T14:32:17.834Z,3.7
2017-11-03T14:34:17.800Z,5.8
2017-11-03T14:36:17.796Z,6.4
2017-11-03T14:38:17.749Z,5.5
2017-11-03T14:40:17.732Z,5.8
2017-11-03T14:42:17.713Z,6
2017-11-03T14:44:17.687Z,4.7
2017-11-03T14:46:17.687Z,3.4
2017-11-03T14:48:17.647Z,4.4
2017-11-03T14:50:17.627Z,8.3
2017-11-03T14:52:17.595Z,4
2017-11-03T14:54:17.595Z,2.3
2017-11-03T14:56:17.567Z,2.4
2017-11-03T14:58:17.558Z,5.9
2017-11-03T15:00:17.501Z,4.7
2017-11-03T15:02:17.505Z,7.5
2017-11-03T15:04:17.476Z,4.9
2017-11-03T15:06:17.444Z,5.3
2017-11-03T15:08:17.411Z,5.8
2017-11-03T15:10:17.363Z,6.4
2017-11-03T15:12:17.336Z,9
2017-11-03T15:14:17.332Z,5.4
2017-11-03T15:16:17.290Z,8.5
2017-11-03T15:18:17.243Z,5.5
2017-11-03T15:20:17.205Z,5.4
2017-11-03T15:22:17.210Z,5.5
2017-11-03T15:24:17.132Z,5.8
2017-11-03T15:26:18.085Z,9.4
2017-11-03T15:28:17.060Z,5.7
2017-11-03T15:30:16.976Z,5.9
2017-11-03T15:32:16.962Z,5.5
2017-11-03T15:34:16.936Z,8.3
2017-11-03T15:36:17.848Z,4.8
2017-11-03T15:38:17.819Z,9
2017-11-03T15:40:17.746Z,16.6
2017-11-03T15:42:17.697Z,18
2017-11-03T15:44:17.670Z,18.5
2017-11-03T15:46:17.593Z,20.7
2017-11-03T15:48:17.536Z,32.7
2017-11-03T15:50:17.463Z,40.7
2017-11-03T15:52:17.429Z,31.5
2017-11-03T15:54:17.370Z,27.1
2017-11-03T15:56:17.290Z,26.1
2017-11-03T15:58:17.214Z,28
2017-11-03T16:00:18.136Z,23.8
2017-11-03T16:02:17.077Z,17.2
2017-11-03T16:04:16.992Z,21.5
2017-11-03T16:06:17.922Z,25.1
2017-11-03T16:08:17.804Z,21.6
2017-11-03T16:10:17.731Z,21.1
2017-11-03T16:12:17.646Z,19.8
2017-11-03T16:14:17.570Z,23.5
2017-11-03T16:16:17.473Z,18.8
2017-11-03T16:18:21.352Z,19.1
2017-11-03T16:20:17.300Z,17.7
2017-11-03T16:22:17.201Z,13.5
2017-11-03T16:24:17.110Z,18.4
2017-11-03T16:26:18.028Z,22.2
2017-11-03T16:28:16.947Z,16.4
2017-11-03T16:30:16.810Z,10.8
2017-11-03T16:32:17.730Z,16.8
2017-11-03T16:34:17.626Z,16.1
2017-11-03T16:36:17.537Z,16.5
2017-11-03T16:38:17.430Z,19.1
2017-11-03T16:40:17.355Z,21.5
2017-11-03T16:42:17.193Z,14.6
2017-11-03T16:44:17.080Z,10.1
2017-11-03T16:46:17.976Z,13.8
2017-11-03T16:48:16.861Z,12.6
2017-11-03T16:50:17.764Z,11.6
2017-11-03T16:52:17.654Z,11.6
2017-11-03T16:54:17.536Z,15.9
2017-11-03T16:56:18.422Z,13.3
2017-11-03T16:58:17.279Z,10.4
2017-11-03T17:00:17.157Z,14.4
2017-11-03T17:02:17.059Z,9.8
2017-11-03T17:04:16.944Z,13.5
2017-11-03T17:06:17.772Z,15.4
2017-11-03T17:08:17.658Z,20.5
2017-11-03T17:10:17.559Z,17.2
2017-11-03T17:12:17.412Z,29.8
2017-11-03T17:14:17.298Z,34.7
2017-11-03T17:16:17.185Z,22.8
2017-11-03T17:18:18.061Z,26.6
2017-11-03T17:20:17.929Z,17.9
2017-11-03T17:22:17.807Z,22.2
2017-11-03T17:24:17.658Z,18.8
2017-11-03T17:26:17.540Z,17.1
2017-11-03T17:28:17.408Z,22.4
2017-11-03T17:30:17.287Z,23.1
2017-11-03T17:32:17.163Z,24
2017-11-03T17:34:17.086Z,18.1
2017-11-03T17:36:17.917Z,22.7
2017-11-03T17:38:17.763Z,21.1
2017-11-03T17:40:17.662Z,17.1
2017-11-03T17:42:17.514Z,18.1
2017-11-03T17:44:17.385Z,18.8
2017-11-03T17:46:17.289Z,16.4
2017-11-03T17:48:17.164Z,15
2017-11-03T17:50:18.002Z,17.8
2017-11-03T17:52:16.920Z,16.8
2017-11-03T17:54:17.757Z,16.5
2017-11-03T17:56:17.624Z,18.1
2017-11-03T17:58:17.507Z,18.8
2017-11-03T18:00:17.341Z,13
2017-11-03T18:02:17.202Z,14.6
2017-11-03T18:04:17.056Z,14.5
2017-11-03T18:06:16.954Z,15.1
2017-11-03T18:08:16.780Z,16.9
2017-11-03T18:10:17.656Z,13.8
2017-11-03T18:12:17.528Z,13.5
2017-11-03T18:14:17.363Z,13.3
2017-11-03T18:16:17.253Z,15.8
2017-11-03T18:18:18.083Z,17.4
2017-11-03T18:20:17.960Z,16.3
2017-11-03T18:22:16.839Z,15
2017-11-03T18:24:17.691Z,14.2
2017-11-03T18:26:17.533Z,13.3
2017-11-03T18:28:17.401Z,21.9
2017-11-03T18:30:17.267Z,14.2
2017-11-03T18:32:17.121Z,19.3
2017-11-03T18:34:16.997Z,17.5
2017-11-03T18:36:17.875Z,15.3
2017-11-03T18:38:17.731Z,14.3
2017-11-03T18:40:17.618Z,15.6
2017-11-03T18:42:17.525Z,12
2017-11-03T18:44:17.396Z,14.4
2017-11-03T18:46:18.294Z,16.2
2017-11-03T18:48:17.174Z,12.1
2017-11-03T18:50:17.037Z,13.4
2017-11-03T18:52:16.924Z,11.1
2017-11-03T18:54:17.779Z,9.9
2017-11-03T18:56:17.672Z,11.4
2017-11-03T18:58:17.526Z,10.1
2017-11-03T19:00:18.387Z,14.4
2017-11-03T19:02:17.269Z,12.2
2017-11-03T19:04:17.114Z,13
2017-11-03T19:06:18.023Z,13
2017-11-03T19:08:16.907Z,10.4
2017-11-03T19:10:17.779Z,15.3
2017-11-03T19:12:17.660Z,16.9
2017-11-03T19:14:17.496Z,9.6
2017-11-03T19:16:17.418Z,8.1
2017-11-03T19:18:21.316Z,7.7
2017-11-03T19:20:17.179Z,10.9
2017-11-03T19:22:17.043Z,12.1
2017-11-03T19:24:16.948Z,11.7
2017-11-03T19:26:17.794Z,10.6
2017-11-03T19:28:17.673Z,11.7
2017-11-03T19:30:17.543Z,9.7
2017-11-03T19:32:17.425Z,10.5
2017-11-03T19:34:17.310Z,8.8
2017-11-03T19:36:18.179Z,10
2017-11-03T19:38:17.038Z,8.1
2017-11-03T19:40:17.916Z,12.1
2017-11-03T19:42:17.781Z,12.4
2017-11-03T19:44:17.689Z,13
2017-11-03T19:46:17.547Z,11.2
2017-11-03T19:48:17.399Z,11.9
2017-11-03T19:50:17.269Z,18.2
2017-11-03T19:52:18.107Z,8.6
2017-11-03T19:54:16.986Z,10.2
2017-11-03T19:56:17.834Z,8.3
2017-11-03T19:58:17.727Z,13
2017-11-03T20:00:17.573Z,8.9
2017-11-03T20:02:17.433Z,7.5
2017-11-03T20:04:17.285Z,13.8
2017-11-03T20:06:18.158Z,11.9
2017-11-03T20:08:16.997Z,14.6
2017-11-03T20:10:17.817Z,11.8
2017-11-03T20:12:17.700Z,13
2017-11-03T20:14:17.530Z,14.5
2017-11-03T20:16:18.342Z,9.6
2017-11-03T20:18:18.219Z,17.1
2017-11-03T20:20:21.044Z,9.6
2017-11-03T20:22:16.909Z,10.1
2017-11-03T20:24:17.748Z,11.3
2017-11-03T20:26:17.584Z,9.9
2017-11-03T20:28:17.432Z,11.7
2017-11-03T20:30:21.296Z,13.5
2017-11-03T20:32:17.141Z,17.2
2017-11-03T20:34:16.972Z,9.4
2017-11-03T20:36:17.812Z,14.1
2017-11-03T20:38:17.640Z,16.8
2017-11-03T20:40:17.507Z,12.9
2017-11-03T20:42:17.329Z,17.9
2017-11-03T20:44:17.168Z,18.9
2017-11-03T20:46:18.001Z,16.7
2017-11-03T20:48:16.861Z,21.6
2017-11-03T20:50:17.707Z,18.4
2017-11-03T20:52:17.542Z,18.8
2017-11-03T20:54:17.378Z,26
2017-11-03T20:56:17.245Z,17.6
2017-11-03T20:58:17.073Z,17.1
2017-11-03T21:00:16.943Z,22.2
2017-11-03T21:02:16.753Z,17.7
2017-11-03T21:04:17.636Z,19.7
2017-11-03T21:06:17.439Z,20.3
2017-11-03T21:08:17.298Z,19.9
2017-11-03T21:10:18.134Z,19.5
2017-11-03T21:12:20.927Z,16.1
2017-11-03T21:14:17.776Z,12.1
2017-11-03T21:16:17.590Z,17.6
2017-11-03T21:18:18.422Z,19.8
2017-11-03T21:20:17.277Z,16.3
2017-11-03T21:22:21.090Z,12.8
2017-11-03T21:24:16.960Z,12
2017-11-03T21:26:17.771Z,20
2017-11-03T21:28:17.597Z,12.4
2017-11-03T21:30:17.456Z,13.7
2017-11-03T21:32:21.227Z,11.9
2017-11-03T21:34:17.087Z,14.3
2017-11-03T21:36:17.938Z,12.7
2017-11-03T21:38:16.741Z,13.9
2017-11-03T21:40:17.610Z,13.2
2017-11-03T21:42:17.415Z,13.5
2017-11-03T21:44:17.260Z,14.9
2017-11-03T21:46:17.090Z,13.1
2017-11-03T21:48:20.897Z,12.8
2017-11-03T21:50:17.768Z,13
2017-11-03T21:52:21.618Z,13.1
2017-11-03T21:54:18.436Z,16.8
2017-11-03T21:56:17.241Z,12.8
2017-11-03T21:58:17.077Z,15.5
2017-11-03T22:00:17.862Z,12.4
2017-11-03T22:02:17.707Z,17.4
2017-11-03T22:04:17.547Z,13.3
2017-11-03T22:06:17.366Z,12.9
2017-11-03T22:08:21.204Z,15.6
2017-11-03T22:10:18.014Z,15.1
2017-11-03T22:12:16.839Z,16.2
2017-11-03T22:14:17.656Z,17.4
2017-11-03T22:16:17.503Z,17.9
2017-11-03T22:18:18.312Z,15.2
2017-11-03T22:20:18.143Z,13.4
2017-11-03T22:22:16.967Z,16.1
2017-11-03T22:24:16.796Z,17.2
2017-11-03T22:26:17.616Z,14
2017-11-03T22:28:17.505Z,19.1
2017-11-03T22:30:18.289Z,15.9
2017-11-03T22:32:18.094Z,16.5
2017-11-03T22:34:16.936Z,15.1
2017-11-03T22:36:17.712Z,12.3
2017-11-03T22:38:17.585Z,18
2017-11-03T22:40:17.422Z,16.8
2017-11-03T22:42:18.214Z,17.5
2017-11-03T22:44:17.066Z,15
2017-11-03T22:46:17.897Z,15.6
2017-11-03T22:48:17.745Z,16.4
2017-11-03T22:50:21.567Z,14.6
2017-11-03T22:52:17.384Z,16.3
2017-11-03T22:54:17.218Z,14.4
2017-11-03T22:56:17.070Z,19.8
2017-11-03T22:58:20.886Z,18.2
2017-11-03T23:00:18.702Z,21.1
2017-11-03T23:02:17.531Z,13.9
2017-11-03T23:04:17.352Z,17
2017-11-03T23:06:17.188Z,11.8
2017-11-03T23:08:17.047Z,18.1
2017-11-03T23:10:17.859Z,19.2
2017-11-03T23:12:17.692Z,17.5
2017-11-03T23:14:21.496Z,14
2017-11-03T23:16:18.368Z,19.7
2017-11-03T23:18:18.134Z,17.6
2017-11-03T23:20:16.952Z,17.1
2017-11-03T23:22:16.761Z,14.2
2017-11-03T23:24:17.581Z,15.9
2017-11-03T23:26:17.406Z,15.5
2017-11-03T23:28:17.244Z,19.3
2017-11-03T23:30:21.041Z,16.4
2017-11-03T23:32:20.852Z,16
2017-11-03T23:34:21.672Z,14.1
2017-11-03T23:36:17.497Z,15.3
2017-11-03T23:38:21.292Z,15.9
2017-11-03T23:40:18.141Z,18
2017-11-03T23:42:17.898Z,19.8
2017-11-03T23:44:17.751Z,19.9
2017-11-03T23:46:17.549Z,19.3
2017-11-03T23:48:18.340Z,16.3
2017-11-03T23:50:18.180Z,20.1
2017-11-03T23:52:17.986Z,19.3
2017-11-03T23:54:20.756Z,20.4
2017-11-03T23:56:17.569Z,18.2
2017-11-03T23:58:18.367Z,17.2
